createdAt,value
2022-09-23T00:02:07.929Z,5.37
2022-09-23T00:04:35.895Z,5.60
2022-09-23T00:07:04.079Z,4.95
2022-09-23T00:09:31.909Z,5.75
2022-09-23T00:12:02.281Z,4.65
2022-09-23T00:14:31.877Z,5.43
2022-09-23T00:17:00.987Z,3.63
2022-09-23T00:19:29.416Z,4.32
2022-09-23T00:21:58.251Z,4.95
2022-09-23T00:24:25.978Z,3.08
2022-09-23T00:26:53.915Z,3.57
2022-09-23T00:29:21.868Z,4.20
2022-09-23T00:31:49.881Z,3.78
2022-09-23T00:34:20.331Z,4.72
2022-09-23T00:36:47.991Z,3.92
2022-09-23T00:39:15.768Z,5.00
2022-09-23T00:41:44.815Z,3.97
2022-09-23T00:44:45.228Z,3.67
2022-09-23T00:47:17.921Z,4.68
2022-09-23T00:49:49.223Z,3.58
2022-09-23T00:52:20.877Z,4.90
2022-09-23T00:54:49.500Z,5.80
2022-09-23T00:57:20.295Z,2.97
2022-09-23T00:59:51.113Z,3.08
2022-09-23T01:02:21.293Z,5.68
2022-09-23T01:04:51.956Z,2.70
2022-09-23T01:07:20.236Z,5.30
2022-09-23T01:09:50.018Z,3.38
2022-09-23T01:12:32.047Z,3.35
2022-09-23T01:15:07.447Z,4.20
2022-09-23T01:17:41.658Z,2.23
2022-09-23T01:20:41.929Z,3.63
2022-09-23T01:23:25.969Z,2.30
2022-09-23T01:26:08.069Z,3.25
2022-09-23T01:28:57.667Z,3.33
2022-09-23T01:31:32.407Z,4.97
2022-09-23T01:34:11.270Z,2.78
2022-09-23T01:36:43.913Z,4.93
2022-09-23T01:39:16.943Z,3.50
2022-09-23T01:41:55.713Z,3.08
2022-09-23T01:44:33.391Z,2.50
2022-09-23T01:47:11.218Z,3.25
2022-09-23T01:49:46.762Z,4.75
2022-09-23T01:52:19.608Z,4.05
2022-09-23T01:54:54.110Z,4.28
2022-09-23T01:57:29.131Z,5.13
2022-09-23T02:00:05.612Z,3.78
2022-09-23T02:02:50.059Z,7.00
2022-09-23T02:05:23.314Z,6.55
2022-09-23T02:07:55.488Z,9.20
2022-09-23T02:10:28.655Z,8.33
2022-09-23T02:13:02.104Z,8.90
2022-09-23T02:15:36.800Z,8.45
2022-09-23T02:18:11.379Z,8.70
2022-09-23T02:20:41.517Z,8.07
2022-09-23T02:23:14.278Z,8.20
2022-09-23T02:25:53.381Z,7.68
2022-09-23T02:28:26.686Z,9.70
2022-09-23T02:31:07.969Z,8.27
2022-09-23T02:33:40.962Z,9.05
2022-09-23T02:36:13.832Z,6.57
2022-09-23T02:38:48.473Z,7.80
2022-09-23T02:41:21.242Z,9.18
2022-09-23T02:43:55.158Z,7.25
2022-09-23T02:46:23.625Z,10.00
2022-09-23T02:48:57.937Z,7.07
2022-09-23T02:51:28.983Z,5.50
2022-09-23T02:53:57.344Z,7.22
2022-09-23T02:56:26.898Z,6.47
2022-09-23T02:58:56.071Z,10.70
2022-09-23T03:01:39.212Z,7.47
2022-09-23T03:04:17.031Z,6.72
2022-09-23T03:06:57.583Z,8.07
2022-09-23T03:09:30.809Z,8.80
2022-09-23T03:12:11.354Z,9.65
2022-09-23T03:14:46.289Z,10.43
2022-09-23T03:17:17.599Z,7.20
2022-09-23T03:19:52.128Z,13.23
2022-09-23T03:22:24.383Z,12.23
2022-09-23T03:24:54.230Z,8.57
2022-09-23T03:27:27.180Z,9.63
2022-09-23T03:29:57.117Z,8.25
2022-09-23T03:32:28.393Z,10.95
2022-09-23T03:35:05.118Z,7.47
2022-09-23T03:37:36.978Z,7.13
2022-09-23T03:40:11.228Z,10.47
2022-09-23T03:42:39.825Z,7.30
2022-09-23T03:45:13.087Z,6.40
2022-09-23T03:47:42.611Z,5.68
2022-09-23T03:50:13.408Z,9.48
2022-09-23T03:52:41.150Z,6.33
2022-09-23T03:55:10.037Z,9.23
2022-09-23T03:57:38.348Z,6.03
2022-09-23T04:00:07.461Z,4.85
2022-09-23T04:02:36.119Z,6.78
2022-09-23T04:05:04.473Z,6.13
2022-09-23T04:07:33.592Z,4.72
2022-09-23T04:10:01.532Z,4.55
2022-09-23T04:12:30.835Z,5.45
2022-09-23T04:14:58.371Z,5.97
2022-09-23T04:17:26.134Z,6.63
2022-09-23T04:19:53.925Z,7.63
2022-09-23T04:22:22.525Z,5.88
2022-09-23T04:24:52.686Z,7.10
2022-09-23T04:27:20.426Z,9.52
2022-09-23T04:29:48.428Z,9.10
2022-09-23T04:32:16.384Z,10.45
2022-09-23T04:34:44.242Z,6.90
2022-09-23T04:37:11.969Z,7.22
2022-09-23T04:39:39.752Z,8.70
2022-09-23T04:42:09.182Z,7.37
2022-09-23T04:44:38.855Z,8.68
2022-09-23T04:47:07.263Z,10.90
2022-09-23T04:49:35.360Z,8.82
2022-09-23T04:52:05.501Z,11.32
2022-09-23T04:54:33.506Z,7.03
2022-09-23T04:57:01.211Z,8.50
2022-09-23T04:59:30.186Z,7.47
2022-09-23T05:01:58.386Z,7.55
2022-09-23T05:04:26.200Z,7.22
2022-09-23T05:06:54.111Z,8.17
2022-09-23T05:09:22.715Z,11.77
2022-09-23T05:11:50.535Z,10.93
2022-09-23T05:14:18.062Z,12.82
2022-09-23T05:16:47.318Z,7.90
2022-09-23T05:19:15.615Z,12.50
2022-09-23T05:21:43.327Z,10.63
2022-09-23T05:24:13.038Z,8.70
2022-09-23T05:26:41.158Z,10.57
2022-09-23T05:29:09.914Z,10.05
2022-09-23T05:31:37.998Z,18.60
2022-09-23T05:34:07.964Z,15.65
2022-09-23T05:36:38.974Z,27.63
2022-09-23T05:39:08.453Z,35.75
2022-09-23T05:41:37.886Z,31.27
2022-09-23T05:44:06.219Z,36.23
2022-09-23T05:46:35.161Z,31.17
2022-09-23T05:49:04.463Z,38.13
2022-09-23T05:51:35.671Z,36.95
2022-09-23T05:54:04.520Z,36.10
2022-09-23T05:56:33.619Z,49.53
2022-09-23T05:59:03.462Z,54.58
2022-09-23T06:01:34.203Z,35.47
2022-09-23T06:04:03.774Z,47.03
2022-09-23T06:06:35.463Z,54.15
2022-09-23T06:09:03.649Z,49.53
2022-09-23T06:11:32.379Z,27.65
2022-09-23T06:14:02.250Z,33.33
2022-09-23T06:16:31.962Z,42.50
2022-09-23T06:19:05.086Z,39.22
2022-09-23T06:21:36.188Z,43.37
2022-09-23T06:24:04.352Z,44.05
2022-09-23T06:26:34.890Z,37.90
2022-09-23T06:29:06.009Z,35.47
2022-09-23T06:31:34.357Z,30.20
2022-09-23T06:34:10.387Z,20.23
2022-09-23T06:36:44.507Z,21.02
2022-09-23T06:39:14.484Z,21.50
2022-09-23T06:41:42.408Z,17.50
2022-09-23T06:44:10.151Z,37.35
2022-09-23T06:46:37.915Z,27.77
2022-09-23T06:49:05.642Z,23.58
2022-09-23T06:51:33.384Z,24.27
2022-09-23T06:54:02.772Z,27.23
2022-09-23T06:56:33.620Z,28.30
2022-09-23T06:59:05.643Z,30.53
2022-09-23T07:01:34.392Z,34.70
2022-09-23T07:04:02.681Z,28.15
2022-09-23T07:06:30.622Z,28.55
2022-09-23T07:08:58.177Z,34.85
2022-09-23T07:11:27.182Z,31.73
2022-09-23T07:13:55.088Z,34.40
2022-09-23T07:16:22.863Z,41.50
2022-09-23T07:18:50.765Z,33.97
2022-09-23T07:21:19.374Z,31.52
2022-09-23T07:23:48.950Z,27.20
2022-09-23T07:26:18.022Z,27.40
2022-09-23T07:28:47.234Z,29.33
2022-09-23T07:31:25.737Z,35.55
2022-09-23T07:34:01.468Z,44.45
2022-09-23T07:36:32.592Z,40.97
2022-09-23T07:39:03.940Z,40.35
2022-09-23T07:41:33.258Z,34.67
2022-09-23T07:44:03.141Z,25.50
2022-09-23T07:46:34.164Z,26.63
2022-09-23T07:49:03.046Z,19.63
2022-09-23T07:51:36.136Z,14.05
2022-09-23T07:54:08.101Z,16.35
2022-09-23T07:56:36.320Z,13.25
2022-09-23T07:59:09.152Z,11.30
2022-09-23T08:01:39.533Z,9.13
2022-09-23T08:04:09.335Z,10.20
2022-09-23T08:06:40.780Z,8.52
2022-09-23T08:09:08.891Z,10.05
2022-09-23T08:11:42.009Z,8.98
2022-09-23T08:14:13.172Z,9.77
2022-09-23T08:16:41.717Z,13.25
2022-09-23T08:19:10.318Z,13.57
2022-09-23T08:21:39.543Z,17.00
2022-09-23T08:24:07.887Z,13.10
2022-09-23T08:26:35.757Z,11.53
2022-09-23T08:29:03.728Z,10.80
2022-09-23T08:31:34.226Z,9.77
2022-09-23T08:34:02.455Z,10.50
2022-09-23T08:36:30.289Z,10.40
2022-09-23T08:38:58.335Z,10.73
2022-09-23T08:41:35.482Z,9.38
2022-09-23T08:44:06.408Z,7.47
2022-09-23T08:46:40.771Z,11.77
2022-09-23T08:49:13.024Z,11.05
2022-09-23T08:51:46.397Z,11.40
2022-09-23T08:54:16.955Z,9.85
2022-09-23T08:56:47.991Z,13.38
2022-09-23T08:59:21.747Z,11.50
2022-09-23T09:01:54.055Z,12.23
2022-09-23T09:04:25.978Z,14.17
2022-09-23T09:07:12.499Z,11.35
2022-09-23T09:09:49.806Z,10.02
2022-09-23T09:12:21.746Z,9.73
2022-09-23T09:14:55.804Z,9.50
2022-09-23T09:17:35.318Z,9.30
2022-09-23T09:20:09.210Z,8.98
2022-09-23T09:22:49.201Z,6.68
2022-09-23T09:25:25.717Z,9.35
2022-09-23T09:27:55.742Z,9.20
2022-09-23T09:30:25.324Z,8.20
2022-09-23T09:33:02.319Z,6.10
2022-09-23T09:35:38.337Z,6.18
2022-09-23T09:38:07.847Z,6.50
2022-09-23T09:40:37.327Z,4.78
2022-09-23T09:43:05.740Z,4.57
2022-09-23T09:45:57.855Z,4.63
2022-09-23T09:48:34.000Z,4.43
2022-09-23T09:51:19.556Z,3.50
2022-09-23T09:53:47.563Z,3.67
2022-09-23T09:56:16.721Z,3.70
2022-09-23T09:58:49.007Z,3.40
2022-09-23T10:01:24.420Z,5.00
2022-09-23T10:03:58.463Z,4.30
2022-09-23T10:06:28.471Z,4.07
2022-09-23T10:09:13.304Z,3.10
2022-09-23T10:11:42.096Z,3.42
2022-09-23T10:14:17.708Z,3.85
2022-09-23T10:16:47.297Z,3.45
2022-09-23T10:19:27.534Z,2.95
2022-09-23T10:21:58.624Z,5.80
2022-09-23T10:24:30.001Z,3.88
2022-09-23T10:27:01.646Z,2.50
2022-09-23T10:29:34.151Z,2.58
2022-09-23T10:32:25.601Z,2.28
2022-09-23T10:34:57.256Z,3.50
2022-09-23T10:37:37.775Z,2.55
2022-09-23T10:40:34.258Z,1.67
2022-09-23T10:43:49.139Z,2.67
2022-09-23T10:46:41.577Z,2.28
2022-09-23T10:49:43.705Z,2.53
2022-09-23T10:52:24.319Z,23.95
2022-09-23T10:55:06.113Z,6.55
2022-09-23T10:57:47.160Z,3.50
2022-09-23T11:00:23.341Z,3.78
2022-09-23T11:03:33.527Z,1.80
2022-09-23T11:06:14.252Z,4.47
2022-09-23T11:09:09.213Z,4.22
2022-09-23T11:11:54.549Z,6.07
2022-09-23T11:14:41.908Z,6.95
2022-09-23T11:17:26.028Z,1.90
2022-09-23T11:20:23.208Z,1.98
2022-09-23T11:23:27.486Z,2.45
2022-09-23T11:26:03.339Z,3.53
2022-09-23T11:28:59.257Z,4.82
2022-09-23T11:31:38.513Z,1.60
2022-09-23T11:34:39.615Z,2.35
2022-09-23T11:37:14.095Z,2.58
2022-09-23T11:39:47.250Z,1.42
2022-09-23T11:42:25.951Z,1.58
2022-09-23T11:44:58.094Z,1.30
2022-09-23T11:47:30.243Z,2.17
2022-09-23T11:50:04.219Z,1.20
2022-09-23T11:52:37.927Z,1.60
2022-09-23T11:55:21.064Z,1.45
2022-09-23T11:57:54.406Z,5.10
2022-09-23T12:00:24.377Z,1.90
2022-09-23T12:03:06.413Z,4.55
2022-09-23T12:05:40.544Z,1.83
2022-09-23T12:08:19.129Z,2.15
2022-09-23T12:10:55.259Z,2.17
2022-09-23T12:13:31.427Z,5.65
2022-09-23T12:16:19.028Z,2.17
2022-09-23T12:18:55.948Z,2.20
2022-09-23T12:21:50.650Z,2.60
2022-09-23T12:24:45.857Z,2.83
2022-09-23T12:27:25.144Z,1.77
2022-09-23T12:29:59.084Z,1.38
2022-09-23T12:32:27.711Z,2.65
2022-09-23T12:34:57.359Z,0.85
2022-09-23T12:37:33.907Z,1.13
2022-09-23T12:40:09.483Z,1.20
2022-09-23T12:42:45.990Z,2.22
2022-09-23T12:45:37.609Z,1.20
2022-09-23T12:48:26.087Z,1.08
2022-09-23T12:50:58.564Z,2.13
2022-09-23T12:54:00.073Z,1.23
2022-09-23T12:56:47.518Z,1.08
2022-09-23T12:59:26.273Z,1.00
2022-09-23T13:01:56.882Z,1.88
2022-09-23T13:04:52.404Z,1.50
2022-09-23T13:07:25.214Z,1.77
2022-09-23T13:09:57.519Z,2.10
2022-09-23T13:12:31.169Z,0.90
2022-09-23T13:15:05.678Z,1.88
2022-09-23T13:17:38.605Z,2.43
2022-09-23T13:20:27.360Z,1.52
2022-09-23T13:23:21.675Z,1.17
2022-09-23T13:25:51.587Z,0.70
2022-09-23T13:28:30.650Z,0.90
2022-09-23T13:30:58.748Z,1.20
2022-09-23T13:33:35.502Z,1.52
2022-09-23T13:36:06.766Z,1.65
2022-09-23T13:38:35.399Z,0.90
2022-09-23T13:41:05.648Z,2.05
2022-09-23T13:43:41.347Z,1.70
2022-09-23T13:46:14.221Z,1.67
2022-09-23T13:48:45.803Z,2.22
2022-09-23T13:51:20.895Z,2.55
2022-09-23T13:53:53.624Z,1.17
2022-09-23T13:56:22.251Z,1.60
2022-09-23T13:58:50.397Z,2.03
2022-09-23T14:01:24.488Z,1.77
2022-09-23T14:03:54.048Z,1.83
2022-09-23T14:06:21.877Z,1.05
2022-09-23T14:08:51.619Z,1.53
2022-09-23T14:11:21.494Z,1.02
2022-09-23T14:13:54.551Z,1.23
2022-09-23T14:16:25.257Z,0.75
2022-09-23T14:19:00.911Z,1.00
2022-09-23T14:21:34.088Z,1.67
2022-09-23T14:24:14.200Z,1.15
2022-09-23T14:26:44.010Z,1.10
2022-09-23T14:29:15.685Z,1.15
2022-09-23T14:31:57.244Z,1.20
2022-09-23T14:34:44.126Z,1.57
2022-09-23T14:37:40.900Z,2.28
2022-09-23T14:40:14.818Z,0.98
2022-09-23T14:42:46.405Z,1.63
2022-09-23T14:45:19.009Z,1.42
2022-09-23T14:47:49.980Z,2.03
2022-09-23T14:50:40.707Z,1.63
2022-09-23T14:53:35.626Z,2.65
2022-09-23T14:56:18.459Z,5.38
2022-09-23T14:58:53.649Z,2.25
2022-09-23T15:01:39.219Z,1.50
2022-09-23T15:04:17.018Z,1.52
2022-09-23T15:06:51.336Z,1.60
2022-09-23T15:09:23.938Z,2.20
2022-09-23T15:11:58.704Z,1.60
2022-09-23T15:14:38.391Z,3.77
2022-09-23T15:17:17.182Z,1.27
2022-09-23T15:19:46.745Z,1.25
2022-09-23T15:22:16.620Z,1.90
2022-09-23T15:24:46.371Z,2.85
2022-09-23T15:27:32.758Z,5.00
2022-09-23T15:30:17.250Z,6.53
2022-09-23T15:32:45.871Z,7.13
2022-09-23T15:35:16.520Z,4.38
2022-09-23T15:37:48.151Z,3.80
2022-09-23T15:40:20.852Z,2.83
2022-09-23T15:42:51.723Z,4.68
2022-09-23T15:45:22.288Z,4.57
2022-09-23T15:47:52.555Z,2.63
2022-09-23T15:50:22.520Z,3.78
2022-09-23T15:52:51.683Z,3.67
2022-09-23T15:55:24.192Z,3.33
2022-09-23T15:57:52.561Z,4.75
2022-09-23T16:00:21.469Z,4.47
2022-09-23T16:02:50.857Z,3.55
2022-09-23T16:05:23.349Z,9.03
2022-09-23T16:07:53.535Z,10.20
2022-09-23T16:10:23.341Z,6.05
2022-09-23T16:12:53.804Z,4.88
2022-09-23T16:15:24.202Z,4.07
2022-09-23T16:17:53.302Z,5.53
2022-09-23T16:20:20.897Z,9.27
2022-09-23T16:22:58.758Z,22.95
2022-09-23T16:25:29.737Z,24.30
2022-09-23T16:27:59.012Z,28.52
2022-09-23T16:30:28.149Z,22.90
2022-09-23T16:32:56.448Z,18.73
2022-09-23T16:35:26.564Z,19.45
2022-09-23T16:37:57.207Z,15.68
2022-09-23T16:40:26.073Z,12.52
2022-09-23T16:42:55.097Z,11.00
2022-09-23T16:45:23.493Z,10.95
2022-09-23T16:47:54.460Z,9.98
2022-09-23T16:50:24.314Z,8.52
2022-09-23T16:52:56.284Z,7.68
2022-09-23T16:55:27.226Z,7.50
2022-09-23T16:57:55.939Z,9.57
2022-09-23T17:00:41.989Z,8.93
2022-09-23T17:03:31.502Z,5.90
2022-09-23T17:06:00.654Z,5.70
2022-09-23T17:08:30.787Z,4.13
2022-09-23T17:11:00.864Z,2.85
2022-09-23T17:13:29.498Z,3.25
2022-09-23T17:15:58.031Z,4.40
2022-09-23T17:18:26.320Z,5.25
2022-09-23T17:20:58.504Z,4.43
2022-09-23T17:23:28.362Z,4.68
2022-09-23T17:25:56.350Z,6.70
2022-09-23T17:28:25.911Z,7.25
2022-09-23T17:30:57.985Z,9.65
2022-09-23T17:33:26.687Z,10.47
2022-09-23T17:35:55.189Z,12.73
2022-09-23T17:38:27.972Z,12.82
2022-09-23T17:40:59.286Z,16.30
2022-09-23T17:43:30.435Z,22.58
2022-09-23T17:46:06.132Z,24.00
2022-09-23T17:48:36.561Z,30.52
2022-09-23T17:51:07.264Z,39.47
2022-09-23T17:53:37.076Z,37.25
2022-09-23T17:56:07.265Z,36.15
2022-09-23T17:58:38.509Z,26.27
2022-09-23T18:01:09.248Z,27.88
2022-09-23T18:03:37.190Z,26.08
2022-09-23T18:06:09.611Z,30.55
2022-09-23T18:08:37.734Z,32.35
2022-09-23T18:11:13.615Z,31.70
2022-09-23T18:13:42.974Z,15.15
2022-09-23T18:16:11.093Z,8.30
2022-09-23T18:18:39.373Z,5.80
2022-09-23T18:21:08.186Z,8.18
2022-09-23T18:23:37.586Z,20.53
2022-09-23T18:26:05.974Z,15.70
2022-09-23T18:28:34.946Z,14.82
2022-09-23T18:31:04.193Z,17.27
2022-09-23T18:33:32.040Z,16.05
2022-09-23T18:36:01.095Z,19.63
2022-09-23T18:38:29.102Z,13.23
2022-09-23T18:41:00.392Z,10.80
2022-09-23T18:43:37.434Z,11.40
2022-09-23T18:46:12.587Z,10.32
2022-09-23T18:48:58.632Z,11.40
2022-09-23T18:51:29.222Z,10.40
2022-09-23T18:53:58.702Z,14.80
2022-09-23T18:56:29.601Z,15.48
2022-09-23T18:58:57.801Z,14.75
2022-09-23T19:01:27.821Z,12.13
2022-09-23T19:03:56.791Z,11.05
2022-09-23T19:06:25.572Z,9.35
2022-09-23T19:08:55.386Z,8.48
2022-09-23T19:11:24.423Z,9.52
2022-09-23T19:13:55.772Z,7.03
2022-09-23T19:16:25.756Z,6.88
2022-09-23T19:18:55.903Z,7.03
2022-09-23T19:21:24.182Z,9.55
2022-09-23T19:23:56.799Z,8.95
2022-09-23T19:26:29.837Z,14.53
2022-09-23T19:28:58.864Z,14.98
2022-09-23T19:31:29.882Z,14.00
2022-09-23T19:34:01.436Z,15.35
2022-09-23T19:36:31.714Z,17.55
2022-09-23T19:39:03.067Z,14.77
2022-09-23T19:41:33.502Z,14.57
2022-09-23T19:44:03.697Z,15.57
2022-09-23T19:46:32.457Z,16.08
2022-09-23T19:49:02.215Z,14.40
2022-09-23T19:51:30.395Z,16.87
2022-09-23T19:54:00.975Z,14.20
2022-09-23T19:56:29.627Z,13.65
2022-09-23T19:58:58.392Z,12.48
2022-09-23T20:01:27.542Z,12.23
2022-09-23T20:03:55.431Z,10.90
2022-09-23T20:06:25.134Z,11.50
2022-09-23T20:08:52.875Z,15.02
2022-09-23T20:11:27.497Z,15.02
2022-09-23T20:14:00.717Z,13.70
2022-09-23T20:16:32.470Z,15.70
2022-09-23T20:19:01.345Z,16.45
2022-09-23T20:21:30.799Z,16.23
2022-09-23T20:23:58.768Z,14.07
2022-09-23T20:26:44.358Z,9.63
2022-09-23T20:29:12.252Z,10.13
2022-09-23T20:31:40.919Z,8.10
2022-09-23T20:34:10.597Z,7.75
2022-09-23T20:36:41.368Z,8.20
2022-09-23T20:39:10.809Z,6.38
2022-09-23T20:41:39.783Z,8.20
2022-09-23T20:44:12.411Z,9.48
2022-09-23T20:46:46.741Z,7.90
2022-09-23T20:49:16.233Z,7.38
2022-09-23T20:51:46.002Z,7.75
2022-09-23T20:54:14.032Z,9.07
2022-09-23T20:56:42.004Z,9.32
2022-09-23T20:59:14.986Z,8.48
2022-09-23T21:01:43.371Z,16.98
2022-09-23T21:04:11.027Z,12.50
2022-09-23T21:06:39.837Z,10.77
2022-09-23T21:09:09.366Z,11.75
2022-09-23T21:11:37.396Z,10.98
2022-09-23T21:14:05.233Z,9.02
2022-09-23T21:16:33.391Z,9.05
2022-09-23T21:19:03.026Z,8.93
2022-09-23T21:21:31.095Z,9.93
2022-09-23T21:24:23.862Z,8.07
2022-09-23T21:26:50.437Z,7.60
2022-09-23T21:29:18.618Z,8.23
2022-09-23T21:31:48.640Z,8.70
2022-09-23T21:34:17.627Z,9.70
2022-09-23T21:36:48.174Z,11.98
2022-09-23T21:39:18.181Z,11.40
2022-09-23T21:41:46.549Z,10.25
2022-09-23T21:44:15.943Z,10.60
2022-09-23T21:46:44.092Z,11.25
2022-09-23T21:49:12.202Z,10.02
2022-09-23T21:51:41.694Z,9.52
2022-09-23T21:54:13.876Z,9.57
2022-09-23T21:56:41.715Z,10.13
2022-09-23T21:59:09.805Z,7.30
2022-09-23T22:01:41.044Z,9.98
2022-09-23T22:04:16.068Z,11.00
2022-09-23T22:06:44.976Z,10.25
2022-09-23T22:09:15.989Z,8.77
2022-09-23T22:12:01.717Z,7.68
2022-09-23T22:14:30.796Z,8.43
2022-09-23T22:17:02.449Z,8.52
2022-09-23T22:19:35.921Z,8.95
2022-09-23T22:22:08.026Z,6.97
2022-09-23T22:24:35.934Z,9.75
2022-09-23T22:27:04.030Z,8.60
2022-09-23T22:29:49.768Z,9.02
2022-09-23T22:32:41.856Z,7.65
2022-09-23T22:35:12.662Z,7.03
2022-09-23T22:37:41.202Z,7.47
2022-09-23T22:40:14.344Z,6.80
2022-09-23T22:42:43.257Z,6.70
2022-09-23T22:45:12.678Z,7.05
2022-09-23T22:47:45.839Z,5.97
2022-09-23T22:50:15.463Z,8.77
2022-09-23T22:52:43.968Z,7.95
2022-09-23T22:55:12.800Z,7.57
2022-09-23T22:57:40.761Z,9.13
2022-09-23T23:00:12.227Z,8.87
2022-09-23T23:02:42.640Z,8.57
2022-09-23T23:05:10.680Z,7.55
2022-09-23T23:07:38.627Z,8.63
2022-09-23T23:10:10.360Z,8.88
2022-09-23T23:12:39.566Z,8.93
2022-09-23T23:15:09.360Z,7.53
2022-09-23T23:17:38.450Z,8.15
2022-09-23T23:20:08.706Z,9.02
2022-09-23T23:22:36.709Z,8.23
2022-09-23T23:25:05.058Z,7.73
2022-09-23T23:27:32.830Z,5.95
2022-09-23T23:30:00.732Z,5.20
2022-09-23T23:32:28.793Z,8.85
2022-09-23T23:34:59.308Z,6.35
2022-09-23T23:37:30.188Z,5.80
2022-09-23T23:39:58.939Z,8.63
2022-09-23T23:42:27.529Z,9.35
2022-09-23T23:44:55.630Z,7.93
2022-09-23T23:47:24.062Z,8.32
2022-09-23T23:49:51.895Z,6.27
2022-09-23T23:52:20.359Z,6.72
2022-09-23T23:54:51.269Z,7.20
2022-09-23T23:57:19.204Z,10.60
2022-09-23T23:59:47.483Z,5.43
